createdAt,value
2022-11-24T00:00:59.522Z,1002.44
2022-11-24T00:01:59.604Z,1002.45
2022-11-24T00:02:59.555Z,1002.42
2022-11-24T00:03:59.495Z,1002.45
2022-11-24T00:04:59.532Z,1002.44
2022-11-24T00:05:59.479Z,1002.43
2022-11-24T00:06:59.535Z,1002.46
2022-11-24T00:07:59.473Z,1002.47
2022-11-24T00:08:59.491Z,1002.43
2022-11-24T00:09:59.473Z,1002.41
2022-11-24T00:10:59.519Z,1002.43
2022-11-24T00:11:59.482Z,1002.39
2022-11-24T00:12:59.482Z,1002.45
2022-11-24T00:13:59.453Z,1002.45
2022-11-24T00:14:59.442Z,1002.44
2022-11-24T00:15:59.445Z,1002.42
2022-11-24T00:16:59.581Z,1002.45
2022-11-24T00:17:59.453Z,1002.43
2022-11-24T00:18:59.451Z,1002.44
2022-11-24T00:19:59.440Z,1002.43
2022-11-24T00:20:59.408Z,1002.43
2022-11-24T00:21:59.411Z,1002.45
2022-11-24T00:22:59.437Z,1002.47
2022-11-24T00:23:59.409Z,1002.40
2022-11-24T00:24:59.400Z,1002.43
2022-11-24T00:25:59.387Z,1002.42
2022-11-24T00:26:59.383Z,1002.43
2022-11-24T00:27:59.394Z,1002.43
2022-11-24T00:28:59.403Z,1002.51
2022-11-24T00:29:59.382Z,1002.52
2022-11-24T00:30:59.439Z,1002.49
2022-11-24T00:31:59.369Z,1002.49
2022-11-24T00:32:59.384Z,1002.48
2022-11-24T00:33:59.369Z,1002.46
2022-11-24T00:34:59.357Z,1002.44
2022-11-24T00:35:59.351Z,1002.44
2022-11-24T00:36:59.359Z,1002.43
2022-11-24T00:37:59.374Z,1002.44
2022-11-24T00:38:59.340Z,1002.43
2022-11-24T00:39:59.334Z,1002.44
2022-11-24T00:40:59.338Z,1002.42
2022-11-24T00:41:59.348Z,1002.40
2022-11-24T00:42:59.329Z,1002.41
2022-11-24T00:43:59.327Z,1002.40
2022-11-24T00:44:59.339Z,1002.31
2022-11-24T00:45:59.395Z,1002.34
2022-11-24T00:46:59.389Z,1002.42
2022-11-24T00:47:59.302Z,1002.34
2022-11-24T00:48:59.331Z,1002.37
2022-11-24T00:49:59.309Z,1002.39
2022-11-24T00:50:59.281Z,1002.35
2022-11-24T00:51:59.301Z,1002.35
2022-11-24T00:52:59.291Z,1002.33
2022-11-24T00:53:59.276Z,1002.35
2022-11-24T00:54:59.276Z,1002.34
2022-11-24T00:55:59.263Z,1002.34
2022-11-24T00:56:59.278Z,1002.41
2022-11-24T00:57:59.250Z,1002.43
2022-11-24T00:58:59.244Z,1002.38
2022-11-24T00:59:59.276Z,1002.45
2022-11-24T01:00:59.271Z,1002.40
2022-11-24T01:01:59.284Z,1002.39
2022-11-24T01:02:59.281Z,1002.45
2022-11-24T01:03:59.256Z,1002.41
2022-11-24T01:04:59.240Z,1002.46
2022-11-24T01:05:59.230Z,1002.49
2022-11-24T01:06:59.215Z,1002.50
2022-11-24T01:07:59.224Z,1002.53
2022-11-24T01:08:59.249Z,1002.57
2022-11-24T01:09:59.189Z,1002.54
2022-11-24T01:10:59.195Z,1002.57
2022-11-24T01:11:59.201Z,1002.58
2022-11-24T01:12:59.182Z,1002.65
2022-11-24T01:13:59.232Z,1002.63
2022-11-24T01:14:59.194Z,1002.60
2022-11-24T01:15:59.222Z,1002.65
2022-11-24T01:16:59.190Z,1002.62
2022-11-24T01:17:59.154Z,1002.65
2022-11-24T01:18:59.160Z,1002.64
2022-11-24T01:19:59.176Z,1002.72
2022-11-24T01:20:59.156Z,1002.68
2022-11-24T01:21:59.164Z,1002.65
2022-11-24T01:22:59.156Z,1002.64
2022-11-24T01:23:59.122Z,1002.62
2022-11-24T01:24:59.130Z,1002.57
2022-11-24T01:25:59.139Z,1002.52
2022-11-24T01:26:59.131Z,1002.51
2022-11-24T01:27:59.108Z,1002.47
2022-11-24T01:28:59.113Z,1002.42
2022-11-24T01:29:59.113Z,1002.47
2022-11-24T01:30:59.146Z,1002.44
2022-11-24T01:31:59.116Z,1002.43
2022-11-24T01:32:59.090Z,1002.40
2022-11-24T01:33:59.078Z,1002.36
2022-11-24T01:34:59.078Z,1002.47
2022-11-24T01:35:59.109Z,1002.45
2022-11-24T01:36:59.072Z,1002.49
2022-11-24T01:37:59.081Z,1002.51
2022-11-24T01:38:59.073Z,1002.51
2022-11-24T01:39:59.075Z,1002.58
2022-11-24T01:40:59.083Z,1002.54
2022-11-24T01:41:59.048Z,1002.57
2022-11-24T01:42:59.053Z,1002.58
2022-11-24T01:43:59.031Z,1002.62
2022-11-24T01:44:59.040Z,1002.64
2022-11-24T01:45:59.059Z,1002.63
2022-11-24T01:46:59.030Z,1002.71
2022-11-24T01:47:59.023Z,1002.72
2022-11-24T01:48:59.003Z,1002.67
2022-11-24T01:49:59.017Z,1002.58
2022-11-24T01:50:59.013Z,1002.60
2022-11-24T01:51:59.023Z,1002.57
2022-11-24T01:52:58.988Z,1002.64
2022-11-24T01:53:58.981Z,1002.65
2022-11-24T01:54:58.983Z,1002.69
2022-11-24T01:55:58.998Z,1002.70
2022-11-24T01:56:58.988Z,1002.73
2022-11-24T01:57:58.968Z,1002.76
2022-11-24T01:58:58.964Z,1002.77
2022-11-24T01:59:58.967Z,1002.72
2022-11-24T02:00:59.015Z,1002.73
2022-11-24T02:01:58.996Z,1002.80
2022-11-24T02:02:58.983Z,1002.79
2022-11-24T02:03:58.937Z,1002.80
2022-11-24T02:04:58.944Z,1002.78
2022-11-24T02:05:58.939Z,1002.77
2022-11-24T02:06:58.970Z,1002.77
2022-11-24T02:07:58.934Z,1002.76
2022-11-24T02:08:58.903Z,1002.77
2022-11-24T02:09:58.912Z,1002.82
2022-11-24T02:10:58.942Z,1002.82
2022-11-24T02:11:58.888Z,1002.85
2022-11-24T02:12:58.897Z,1002.87
2022-11-24T02:13:58.892Z,1002.86
2022-11-24T02:14:58.876Z,1002.89
2022-11-24T02:15:58.988Z,1002.79
2022-11-24T02:16:58.880Z,1002.86
2022-11-24T02:17:58.921Z,1002.90
2022-11-24T02:19:06.891Z,1002.86
2022-11-24T02:19:58.896Z,1002.82
2022-11-24T02:20:58.852Z,1002.85
2022-11-24T02:21:58.848Z,1002.76
2022-11-24T02:22:58.831Z,1002.83
2022-11-24T02:23:58.826Z,1002.83
2022-11-24T02:24:58.820Z,1002.85
2022-11-24T02:25:58.836Z,1002.89
2022-11-24T02:26:58.818Z,1002.92
2022-11-24T02:27:58.809Z,1002.94
2022-11-24T02:28:58.801Z,1002.92
2022-11-24T02:29:58.822Z,1002.91
2022-11-24T02:30:58.856Z,1002.89
2022-11-24T02:31:58.781Z,1002.88
2022-11-24T02:32:58.789Z,1002.90
2022-11-24T02:33:58.776Z,1002.90
2022-11-24T02:34:58.767Z,1002.90
2022-11-24T02:35:58.784Z,1002.89
2022-11-24T02:36:58.768Z,1002.95
2022-11-24T02:37:58.786Z,1002.91
2022-11-24T02:38:58.757Z,1002.93
2022-11-24T02:39:58.755Z,1002.96
2022-11-24T02:40:58.761Z,1002.96
2022-11-24T02:41:58.761Z,1002.98
2022-11-24T02:42:58.737Z,1002.99
2022-11-24T02:43:58.732Z,1002.98
2022-11-24T02:44:58.722Z,1002.96
2022-11-24T02:45:58.754Z,1002.95
2022-11-24T02:46:58.731Z,1002.90
2022-11-24T02:47:58.711Z,1002.95
2022-11-24T02:48:58.712Z,1002.92
2022-11-24T02:49:58.695Z,1002.96
2022-11-24T02:50:58.696Z,1002.94
2022-11-24T02:51:58.713Z,1002.95
2022-11-24T02:52:58.689Z,1002.89
2022-11-24T02:53:58.675Z,1002.86
2022-11-24T02:54:58.672Z,1002.88
2022-11-24T02:55:58.664Z,1002.88
2022-11-24T02:56:58.672Z,1002.83
2022-11-24T02:57:58.678Z,1002.84
2022-11-24T02:58:58.664Z,1002.83
2022-11-24T02:59:58.651Z,1002.83
2022-11-24T03:00:58.659Z,1002.87
2022-11-24T03:01:58.715Z,1002.90
2022-11-24T03:02:58.708Z,1002.93
2022-11-24T03:03:58.647Z,1003.01
2022-11-24T03:04:58.623Z,1002.97
2022-11-24T03:05:58.616Z,1002.91
2022-11-24T03:06:58.623Z,1002.90
2022-11-24T03:07:58.625Z,1002.94
2022-11-24T03:08:58.616Z,1002.91
2022-11-24T03:09:58.598Z,1002.86
2022-11-24T03:10:58.593Z,1002.92
2022-11-24T03:11:58.620Z,1002.94
2022-11-24T03:12:58.578Z,1002.93
2022-11-24T03:13:58.575Z,1002.91
2022-11-24T03:14:58.568Z,1002.91
2022-11-24T03:15:58.584Z,1002.93
2022-11-24T03:16:58.577Z,1002.95
2022-11-24T03:17:58.566Z,1002.98
2022-11-24T03:18:58.549Z,1003.00
2022-11-24T03:20:04.156Z,1003.02
2022-11-24T03:20:58.550Z,1002.96
2022-11-24T03:21:58.548Z,1003.05
2022-11-24T03:22:58.541Z,1003.12
2022-11-24T03:23:58.543Z,1003.10
2022-11-24T03:24:58.531Z,1003.10
2022-11-24T03:25:58.526Z,1003.04
2022-11-24T03:26:58.521Z,1003.12
2022-11-24T03:27:58.515Z,1003.10
2022-11-24T03:28:58.510Z,1003.16
2022-11-24T03:29:58.504Z,1003.13
2022-11-24T03:30:58.541Z,1003.11
2022-11-24T03:31:58.512Z,1003.16
2022-11-24T03:32:58.492Z,1003.16
2022-11-24T03:33:58.487Z,1003.12
2022-11-24T03:34:58.481Z,1003.13
2022-11-24T03:35:58.468Z,1003.11
2022-11-24T03:36:58.458Z,1003.12
2022-11-24T03:37:58.467Z,1003.14
2022-11-24T03:38:58.449Z,1003.21
2022-11-24T03:39:58.456Z,1003.19
2022-11-24T03:40:58.442Z,1003.13
2022-11-24T03:41:58.442Z,1003.17
2022-11-24T03:42:58.458Z,1003.13
2022-11-24T03:43:58.434Z,1003.17
2022-11-24T03:45:01.657Z,1003.12
2022-11-24T03:45:58.508Z,1003.15
2022-11-24T03:46:58.416Z,1003.16
2022-11-24T03:47:58.417Z,1003.21
2022-11-24T03:48:58.415Z,1003.18
2022-11-24T03:49:58.397Z,1003.20
2022-11-24T03:50:58.406Z,1003.27
2022-11-24T03:52:00.613Z,1003.19
2022-11-24T03:52:58.392Z,1003.20
2022-11-24T03:53:58.401Z,1003.21
2022-11-24T03:54:58.381Z,1003.22
2022-11-24T03:55:58.380Z,1003.26
2022-11-24T03:56:58.369Z,1003.34
2022-11-24T03:57:58.356Z,1003.33
2022-11-24T03:58:58.370Z,1003.39
2022-11-24T03:59:58.366Z,1003.35
2022-11-24T04:00:58.352Z,1003.37
2022-11-24T04:01:58.473Z,1003.38
2022-11-24T04:02:58.371Z,1003.36
2022-11-24T04:03:58.346Z,1003.42
2022-11-24T04:04:58.323Z,1003.39
2022-11-24T04:05:58.325Z,1003.42
2022-11-24T04:06:58.322Z,1003.43
2022-11-24T04:07:58.318Z,1003.43
2022-11-24T04:08:58.328Z,1003.42
2022-11-24T04:09:58.295Z,1003.42
2022-11-24T04:10:58.314Z,1003.43
2022-11-24T04:11:58.304Z,1003.40
2022-11-24T04:12:58.295Z,1003.42
2022-11-24T04:13:58.288Z,1003.38
2022-11-24T04:14:58.275Z,1003.36
2022-11-24T04:15:58.323Z,1003.32
2022-11-24T04:16:58.282Z,1003.32
2022-11-24T04:17:58.272Z,1003.31
2022-11-24T04:18:58.259Z,1003.32
2022-11-24T04:19:58.250Z,1003.28
2022-11-24T04:20:58.254Z,1003.33
2022-11-24T04:21:58.268Z,1003.30
2022-11-24T04:22:58.250Z,1003.31
2022-11-24T04:23:58.243Z,1003.25
2022-11-24T04:24:58.228Z,1003.31
2022-11-24T04:25:58.220Z,1003.28
2022-11-24T04:26:58.210Z,1003.30
2022-11-24T04:27:58.233Z,1003.33
2022-11-24T04:28:58.218Z,1003.40
2022-11-24T04:29:58.208Z,1003.42
2022-11-24T04:30:58.226Z,1003.42
2022-11-24T04:31:58.190Z,1003.47
2022-11-24T04:32:58.201Z,1003.46
2022-11-24T04:33:58.200Z,1003.46
2022-11-24T04:34:58.175Z,1003.41
2022-11-24T04:35:58.175Z,1003.47
2022-11-24T04:36:58.163Z,1003.48
2022-11-24T04:37:58.192Z,1003.47
2022-11-24T04:39:25.984Z,1003.53
2022-11-24T04:39:58.165Z,1003.53
2022-11-24T04:40:58.145Z,1003.54
2022-11-24T04:41:58.134Z,1003.56
2022-11-24T04:42:58.146Z,1003.60
2022-11-24T04:43:58.135Z,1003.58
2022-11-24T04:44:58.136Z,1003.67
2022-11-24T04:45:58.129Z,1003.62
2022-11-24T04:46:58.175Z,1003.71
2022-11-24T04:47:58.108Z,1003.71
2022-11-24T04:48:58.128Z,1003.74
2022-11-24T04:49:58.106Z,1003.74
2022-11-24T04:50:58.119Z,1003.78
2022-11-24T04:51:58.084Z,1003.78
2022-11-24T04:52:58.084Z,1003.81
2022-11-24T04:53:58.088Z,1003.86
2022-11-24T04:54:58.101Z,1003.85
2022-11-24T04:55:58.076Z,1003.89
2022-11-24T04:56:58.083Z,1003.91
2022-11-24T04:57:58.072Z,1003.95
2022-11-24T04:58:58.061Z,1003.88
2022-11-24T04:59:58.046Z,1003.94
2022-11-24T05:00:58.047Z,1003.92
2022-11-24T05:01:58.133Z,1003.95
2022-11-24T05:02:58.029Z,1003.90
2022-11-24T05:03:58.064Z,1003.91
2022-11-24T05:04:58.027Z,1003.94
2022-11-24T05:05:58.023Z,1003.95
2022-11-24T05:06:58.006Z,1003.95
2022-11-24T05:07:58.025Z,1003.96
2022-11-24T05:08:58.013Z,1003.92
2022-11-24T05:09:59.565Z,1003.94
2022-11-24T05:10:57.995Z,1003.95
2022-11-24T05:11:57.982Z,1003.98
2022-11-24T05:12:57.983Z,1004.00
2022-11-24T05:13:57.983Z,1003.95
2022-11-24T05:14:57.979Z,1003.99
2022-11-24T05:15:58.022Z,1004.00
2022-11-24T05:16:57.947Z,1004.02
2022-11-24T05:17:57.954Z,1004.04
2022-11-24T05:18:57.946Z,1004.01
2022-11-24T05:19:57.933Z,1003.99
2022-11-24T05:20:57.937Z,1004.05
2022-11-24T05:21:57.957Z,1004.08
2022-11-24T05:22:57.943Z,1003.99
2022-11-24T05:23:57.921Z,1004.07
2022-11-24T05:24:57.916Z,1004.06
2022-11-24T05:25:57.906Z,1004.07
2022-11-24T05:26:57.904Z,1004.06
2022-11-24T05:27:57.909Z,1004.01
2022-11-24T05:28:57.907Z,1004.09
2022-11-24T05:29:57.897Z,1004.08
2022-11-24T05:30:57.920Z,1004.09
2022-11-24T05:31:57.874Z,1004.06
2022-11-24T05:32:57.872Z,1004.11
2022-11-24T05:33:57.870Z,1004.17
2022-11-24T05:34:57.866Z,1004.18
2022-11-24T05:35:57.854Z,1004.16
2022-11-24T05:36:57.844Z,1004.19
2022-11-24T05:37:57.856Z,1004.17
2022-11-24T05:38:57.853Z,1004.19
2022-11-24T05:39:57.869Z,1004.20
2022-11-24T05:40:57.836Z,1004.21
2022-11-24T05:41:57.840Z,1004.17
2022-11-24T05:42:57.820Z,1004.21
2022-11-24T05:43:57.815Z,1004.26
2022-11-24T05:44:57.838Z,1004.23
2022-11-24T05:45:57.801Z,1004.22
2022-11-24T05:46:57.813Z,1004.22
2022-11-24T05:47:57.822Z,1004.22
2022-11-24T05:48:57.787Z,1004.20
2022-11-24T05:49:57.794Z,1004.24
2022-11-24T05:50:57.813Z,1004.25
2022-11-24T05:51:57.780Z,1004.28
2022-11-24T05:52:57.777Z,1004.27
2022-11-24T05:53:57.822Z,1004.30
2022-11-24T05:54:57.760Z,1004.30
2022-11-24T05:57:34.418Z,1004.32
2022-11-24T05:58:29.796Z,1004.33
2022-11-24T05:59:29.795Z,1004.35
2022-11-24T06:00:29.813Z,1004.37
2022-11-24T06:01:29.821Z,1004.32
2022-11-24T06:02:29.869Z,1004.35
2022-11-24T06:03:29.787Z,1004.33
2022-11-24T06:04:29.784Z,1004.35
2022-11-24T06:05:29.762Z,1004.35
2022-11-24T06:06:29.764Z,1004.38
2022-11-24T06:07:29.854Z,1004.37
2022-11-24T06:08:31.342Z,1004.37
2022-11-24T06:09:29.742Z,1004.35
2022-11-24T06:10:29.731Z,1004.37
2022-11-24T06:11:29.753Z,1004.39
2022-11-24T06:14:03.081Z,1004.41
2022-11-24T06:15:01.864Z,1004.43
2022-11-24T06:16:01.817Z,1004.50
2022-11-24T06:17:01.769Z,1004.45
2022-11-24T06:18:01.774Z,1004.52
2022-11-24T06:19:01.754Z,1004.51
2022-11-24T06:20:01.751Z,1004.55
2022-11-24T06:21:10.796Z,1004.60
2022-11-24T06:22:01.742Z,1004.61
2022-11-24T06:23:01.744Z,1004.60
2022-11-24T06:24:01.757Z,1004.62
2022-11-24T06:25:01.741Z,1004.62
2022-11-24T06:26:01.717Z,1004.64
2022-11-24T06:27:01.702Z,1004.66
2022-11-24T06:28:01.709Z,1004.66
2022-11-24T06:29:01.713Z,1004.68
2022-11-24T06:30:01.725Z,1004.65
2022-11-24T06:31:01.704Z,1004.67
2022-11-24T06:32:01.738Z,1004.70
2022-11-24T06:33:01.690Z,1004.71
2022-11-24T06:34:01.676Z,1004.74
2022-11-24T06:35:01.677Z,1004.78
2022-11-24T06:36:01.667Z,1004.81
2022-11-24T06:37:01.672Z,1004.84
2022-11-24T06:38:01.645Z,1004.80
2022-11-24T06:39:01.650Z,1004.82
2022-11-24T06:40:01.667Z,1004.80
2022-11-24T06:41:01.630Z,1004.81
2022-11-24T06:42:01.635Z,1004.80
2022-11-24T06:43:01.628Z,1004.77
2022-11-24T06:44:01.625Z,1004.82
2022-11-24T06:45:04.859Z,1004.80
2022-11-24T06:46:01.662Z,1004.84
2022-11-24T06:47:01.611Z,1004.79
2022-11-24T06:48:01.599Z,1004.74
2022-11-24T06:49:01.600Z,1004.79
2022-11-24T06:50:01.609Z,1004.84
2022-11-24T06:51:01.616Z,1004.82
2022-11-24T06:52:01.572Z,1004.86
2022-11-24T06:53:01.567Z,1004.91
2022-11-24T06:54:01.560Z,1004.88
2022-11-24T06:55:01.589Z,1004.87
2022-11-24T06:56:01.580Z,1004.89
2022-11-24T06:57:01.559Z,1004.92
2022-11-24T06:58:01.540Z,1004.92
2022-11-24T06:59:01.548Z,1004.94
2022-11-24T07:00:01.553Z,1004.94
2022-11-24T07:01:01.570Z,1004.96
2022-11-24T07:02:01.531Z,1004.98
2022-11-24T07:03:01.579Z,1004.94
2022-11-24T07:04:01.527Z,1004.97
2022-11-24T07:05:01.511Z,1004.96
2022-11-24T07:06:01.537Z,1004.98
2022-11-24T07:07:01.516Z,1005.00
2022-11-24T07:08:01.502Z,1004.97
2022-11-24T07:09:01.491Z,1004.94
2022-11-24T07:10:01.496Z,1004.98
2022-11-24T07:11:01.478Z,1005.00
2022-11-24T07:12:01.488Z,1005.00
2022-11-24T07:13:01.475Z,1005.02
2022-11-24T07:14:01.463Z,1004.95
2022-11-24T07:15:01.451Z,1004.98
2022-11-24T07:16:01.531Z,1004.99
2022-11-24T07:17:01.589Z,1004.94
2022-11-24T07:18:01.728Z,1005.02
2022-11-24T07:19:01.452Z,1005.00
2022-11-24T07:20:01.425Z,1004.96
2022-11-24T07:21:01.435Z,1005.01
2022-11-24T07:22:01.433Z,1004.99
2022-11-24T07:23:01.450Z,1005.06
2022-11-24T07:24:01.416Z,1005.08
2022-11-24T07:25:01.422Z,1005.04
2022-11-24T07:26:06.520Z,1005.06
2022-11-24T07:27:01.402Z,1005.08
2022-11-24T07:28:01.403Z,1005.04
2022-11-24T07:29:01.405Z,1005.07
2022-11-24T07:30:01.395Z,1005.10
2022-11-24T07:31:01.381Z,1005.08
2022-11-24T07:32:05.457Z,1005.06
2022-11-24T07:33:01.375Z,1005.11
2022-11-24T07:34:01.389Z,1005.18
2022-11-24T07:35:01.378Z,1005.17
2022-11-24T07:36:01.355Z,1005.15
2022-11-24T07:37:01.343Z,1005.15
2022-11-24T07:38:01.361Z,1005.17
2022-11-24T07:39:01.344Z,1005.20
2022-11-24T07:40:01.362Z,1005.20
2022-11-24T07:41:01.323Z,1005.27
2022-11-24T07:42:01.329Z,1005.32
2022-11-24T07:43:01.327Z,1005.34
2022-11-24T07:44:01.309Z,1005.31
2022-11-24T07:45:01.329Z,1005.36
2022-11-24T07:46:01.395Z,1005.33
2022-11-24T07:47:01.294Z,1005.41
2022-11-24T07:48:01.297Z,1005.36
2022-11-24T07:49:01.291Z,1005.41
2022-11-24T07:50:01.292Z,1005.41
2022-11-24T07:51:01.273Z,1005.45
2022-11-24T07:52:01.291Z,1005.45
2022-11-24T07:53:01.887Z,1005.45
2022-11-24T07:54:01.265Z,1005.47
2022-11-24T07:55:01.269Z,1005.42
2022-11-24T07:56:01.256Z,1005.45
2022-11-24T07:57:01.304Z,1005.43
2022-11-24T07:58:01.274Z,1005.45
2022-11-24T07:59:01.232Z,1005.43
2022-11-24T08:00:01.234Z,1005.45
2022-11-24T08:01:01.236Z,1005.43
2022-11-24T08:02:01.327Z,1005.46
2022-11-24T08:03:01.236Z,1005.46
2022-11-24T08:04:01.267Z,1005.47
2022-11-24T08:05:01.210Z,1005.47
2022-11-24T08:06:24.028Z,1005.46
2022-11-24T08:07:01.205Z,1005.43
2022-11-24T08:08:01.226Z,1005.43
2022-11-24T08:09:01.220Z,1005.42
2022-11-24T08:10:01.196Z,1005.48
2022-11-24T08:11:01.180Z,1005.46
2022-11-24T08:12:01.181Z,1005.44
2022-11-24T08:13:01.179Z,1005.52
2022-11-24T08:14:01.168Z,1005.47
2022-11-24T08:15:03.315Z,1005.47
2022-11-24T08:16:01.147Z,1005.45
2022-11-24T08:17:01.201Z,1005.41
2022-11-24T08:18:01.147Z,1005.41
2022-11-24T08:19:10.427Z,1005.45
2022-11-24T08:20:01.199Z,1005.41
2022-11-24T08:21:01.150Z,1005.44
2022-11-24T08:22:02.249Z,1005.41
2022-11-24T08:23:01.126Z,1005.46
2022-11-24T08:24:01.110Z,1005.51
2022-11-24T08:25:01.129Z,1005.52
2022-11-24T08:26:01.117Z,1005.49
2022-11-24T08:27:01.096Z,1005.51
2022-11-24T08:28:01.102Z,1005.50
2022-11-24T08:29:01.134Z,1005.50
2022-11-24T08:30:01.103Z,1005.50
2022-11-24T08:31:01.111Z,1005.50
2022-11-24T08:32:01.152Z,1005.50
2022-11-24T08:33:01.091Z,1005.51
2022-11-24T08:34:01.075Z,1005.47
2022-11-24T08:35:13.420Z,1005.49
2022-11-24T08:36:01.054Z,1005.52
2022-11-24T08:37:01.062Z,1005.49
2022-11-24T08:38:04.677Z,1005.51
2022-11-24T08:39:01.062Z,1005.50
2022-11-24T08:40:01.041Z,1005.47
2022-11-24T08:41:01.038Z,1005.50
2022-11-24T08:42:01.064Z,1005.55
2022-11-24T08:43:01.027Z,1005.54
2022-11-24T08:44:01.012Z,1005.57
2022-11-24T08:45:13.038Z,1005.56
2022-11-24T08:46:01.099Z,1005.59
2022-11-24T08:47:01.019Z,1005.59
2022-11-24T08:48:01.019Z,1005.59
2022-11-24T08:49:01.006Z,1005.63
2022-11-24T08:50:01.005Z,1005.64
2022-11-24T08:51:00.983Z,1005.61
2022-11-24T08:52:00.990Z,1005.60
2022-11-24T08:53:01.013Z,1005.54
2022-11-24T08:54:01.000Z,1005.54
2022-11-24T08:55:00.970Z,1005.64
2022-11-24T08:56:00.984Z,1005.64
2022-11-24T08:57:00.956Z,1005.71
2022-11-24T08:58:00.983Z,1005.72
2022-11-24T08:59:01.037Z,1005.74
2022-11-24T09:00:00.939Z,1005.80
2022-11-24T09:01:00.981Z,1005.80
2022-11-24T09:02:01.016Z,1005.85
2022-11-24T09:03:00.942Z,1005.89
2022-11-24T09:04:01.040Z,1005.90
2022-11-24T09:05:00.938Z,1005.83
2022-11-24T09:06:00.935Z,1005.78
2022-11-24T09:07:00.925Z,1005.75
2022-11-24T09:08:00.923Z,1005.79
2022-11-24T09:09:00.911Z,1005.78
2022-11-24T09:10:00.904Z,1005.80
2022-11-24T09:11:00.908Z,1005.79
2022-11-24T09:12:00.895Z,1005.80
2022-11-24T09:13:00.902Z,1005.77
2022-11-24T09:14:00.889Z,1005.79
2022-11-24T09:15:00.894Z,1005.85
2022-11-24T09:16:00.919Z,1005.86
2022-11-24T09:17:00.940Z,1005.88
2022-11-24T09:18:00.863Z,1005.86
2022-11-24T09:19:00.877Z,1005.95
2022-11-24T09:20:00.861Z,1005.92
2022-11-24T09:21:00.873Z,1005.92
2022-11-24T09:22:00.874Z,1005.92
2022-11-24T09:23:00.848Z,1005.91
2022-11-24T09:24:00.844Z,1005.95
2022-11-24T09:25:00.850Z,1006.00
2022-11-24T09:26:00.838Z,1005.98
2022-11-24T09:27:00.849Z,1005.98
2022-11-24T09:28:00.810Z,1006.06
2022-11-24T09:29:00.839Z,1006.02
2022-11-24T09:30:00.832Z,1006.00
2022-11-24T09:31:00.895Z,1006.04
2022-11-24T09:32:06.283Z,1006.04
2022-11-24T09:33:00.807Z,1006.08
2022-11-24T09:34:00.806Z,1006.07
2022-11-24T09:35:00.784Z,1006.05
2022-11-24T09:36:00.801Z,1006.09
2022-11-24T09:37:00.789Z,1006.07
2022-11-24T09:38:00.776Z,1006.08
2022-11-24T09:39:00.768Z,1006.09
2022-11-24T09:40:00.772Z,1006.05
2022-11-24T09:41:00.768Z,1006.01
2022-11-24T09:42:00.770Z,1006.04
2022-11-24T09:43:00.779Z,1006.00
2022-11-24T09:44:00.776Z,1005.99
2022-11-24T09:45:00.758Z,1006.00
2022-11-24T09:46:08.082Z,1006.01
2022-11-24T09:47:00.827Z,1006.02
2022-11-24T09:48:00.838Z,1006.07
2022-11-24T09:49:00.739Z,1006.08
2022-11-24T09:50:00.727Z,1006.13
2022-11-24T09:51:00.727Z,1006.12
2022-11-24T09:52:00.731Z,1006.10
2022-11-24T09:53:00.723Z,1006.12
2022-11-24T09:54:00.695Z,1006.08
2022-11-24T09:55:00.701Z,1006.10
2022-11-24T09:56:00.699Z,1006.15
2022-11-24T09:57:00.684Z,1006.13
2022-11-24T09:58:00.695Z,1006.13
2022-11-24T09:59:00.711Z,1006.12
2022-11-24T10:00:00.709Z,1006.12
2022-11-24T10:01:00.758Z,1006.17
2022-11-24T10:02:00.704Z,1006.14
2022-11-24T10:03:00.668Z,1006.20
2022-11-24T10:04:06.073Z,1006.17
2022-11-24T10:05:00.716Z,1006.26
2022-11-24T10:06:00.663Z,1006.22
2022-11-24T10:07:00.644Z,1006.19
2022-11-24T10:08:00.710Z,1006.22
2022-11-24T10:09:00.649Z,1006.22
2022-11-24T10:10:00.668Z,1006.20
2022-11-24T10:11:00.659Z,1006.18
2022-11-24T10:12:00.711Z,1006.11
2022-11-24T10:13:00.626Z,1006.15
2022-11-24T10:14:00.629Z,1006.18
2022-11-24T10:15:00.644Z,1006.21
2022-11-24T10:16:00.671Z,1006.21
2022-11-24T10:17:00.613Z,1006.23
2022-11-24T10:18:00.603Z,1006.18
2022-11-24T10:19:00.630Z,1006.17
2022-11-24T10:20:00.607Z,1006.22
2022-11-24T10:21:00.620Z,1006.22
2022-11-24T10:22:00.598Z,1006.21
2022-11-24T10:23:00.594Z,1006.25
2022-11-24T10:24:00.578Z,1006.24
2022-11-24T10:25:00.582Z,1006.31
2022-11-24T10:26:00.569Z,1006.27
2022-11-24T10:27:00.596Z,1006.28
2022-11-24T10:28:00.564Z,1006.35
2022-11-24T10:29:00.561Z,1006.31
2022-11-24T10:30:00.610Z,1006.37
2022-11-24T10:31:00.572Z,1006.27
2022-11-24T10:32:00.563Z,1006.24
2022-11-24T10:33:00.553Z,1006.21
2022-11-24T10:34:00.537Z,1006.20
2022-11-24T10:35:00.549Z,1006.21
2022-11-24T10:36:00.535Z,1006.25
2022-11-24T10:37:00.615Z,1006.25
2022-11-24T10:38:00.520Z,1006.24
2022-11-24T10:39:00.554Z,1006.27
2022-11-24T10:40:00.784Z,1006.22
2022-11-24T10:41:00.521Z,1006.31
2022-11-24T10:42:00.553Z,1006.31
2022-11-24T10:43:00.519Z,1006.35
2022-11-24T10:44:00.546Z,1006.27
2022-11-24T10:45:00.541Z,1006.34
2022-11-24T10:46:00.587Z,1006.32
2022-11-24T10:47:00.495Z,1006.31
2022-11-24T10:48:00.493Z,1006.31
2022-11-24T10:49:00.505Z,1006.25
2022-11-24T10:50:00.501Z,1006.33
2022-11-24T10:51:00.487Z,1006.36
2022-11-24T10:52:00.496Z,1006.37
2022-11-24T10:53:00.472Z,1006.37
2022-11-24T10:54:00.488Z,1006.33
2022-11-24T10:55:00.460Z,1006.33
2022-11-24T10:56:00.534Z,1006.42
2022-11-24T10:57:00.454Z,1006.44
2022-11-24T10:58:00.471Z,1006.45
2022-11-24T10:59:00.481Z,1006.45
2022-11-24T11:00:00.446Z,1006.48
2022-11-24T11:01:00.496Z,1006.51
2022-11-24T11:02:00.541Z,1006.57
2022-11-24T11:03:00.578Z,1006.56
2022-11-24T11:04:00.460Z,1006.47
2022-11-24T11:05:00.444Z,1006.48
2022-11-24T11:06:00.524Z,1006.49
2022-11-24T11:07:00.426Z,1006.48
2022-11-24T11:08:05.331Z,1006.44
2022-11-24T11:09:00.476Z,1006.47
2022-11-24T11:10:00.416Z,1006.39
2022-11-24T11:11:00.421Z,1006.39
2022-11-24T11:12:10.034Z,1006.35
2022-11-24T11:13:00.393Z,1006.34
2022-11-24T11:14:04.367Z,1006.35
2022-11-24T11:15:00.416Z,1006.34
2022-11-24T11:16:00.456Z,1006.39
2022-11-24T11:17:00.417Z,1006.37
2022-11-24T11:18:00.414Z,1006.41
2022-11-24T11:19:00.401Z,1006.39
2022-11-24T11:20:02.535Z,1006.39
2022-11-24T11:21:00.390Z,1006.39
2022-11-24T11:22:00.391Z,1006.38
2022-11-24T11:23:00.366Z,1006.38
2022-11-24T11:24:00.362Z,1006.36
2022-11-24T11:25:00.372Z,1006.34
2022-11-24T11:26:00.481Z,1006.37
2022-11-24T11:31:40.881Z,1006.37
2022-11-24T11:34:41.513Z,1006.32
2022-11-24T11:35:42.587Z,1006.31
2022-11-24T11:36:40.279Z,1006.30
2022-11-24T11:37:40.256Z,1006.30
2022-11-24T11:38:40.369Z,1006.34
2022-11-24T11:39:45.416Z,1006.32
2022-11-24T11:40:40.252Z,1006.34
2022-11-24T11:41:40.285Z,1006.33
2022-11-24T11:43:40.263Z,1006.41
2022-11-24T11:44:40.240Z,1006.38
2022-11-24T11:45:40.286Z,1006.34
2022-11-24T11:46:40.280Z,1006.36
2022-11-24T11:47:40.266Z,1006.37
2022-11-24T11:48:43.549Z,1006.42
2022-11-24T11:49:40.237Z,1006.38
2022-11-24T11:51:06.488Z,1006.38
2022-11-24T11:51:40.250Z,1006.41
2022-11-24T11:52:40.234Z,1006.48
2022-11-24T11:53:40.243Z,1006.46
2022-11-24T11:54:40.207Z,1006.47
2022-11-24T11:55:43.943Z,1006.48
2022-11-24T11:56:40.185Z,1006.49
2022-11-24T11:57:40.195Z,1006.45
2022-11-24T11:58:40.232Z,1006.47
2022-11-24T11:59:40.188Z,1006.52
2022-11-24T12:00:40.186Z,1006.50
2022-11-24T12:01:40.183Z,1006.49
2022-11-24T12:02:40.351Z,1006.49
2022-11-24T12:03:40.332Z,1006.54
2022-11-24T12:04:40.185Z,1006.52
2022-11-24T12:05:40.160Z,1006.51
2022-11-24T12:06:40.162Z,1006.54
2022-11-24T12:07:40.261Z,1006.51
2022-11-24T12:09:11.610Z,1006.53
2022-11-24T12:09:40.146Z,1006.56
2022-11-24T12:10:40.130Z,1006.50
2022-11-24T12:11:40.157Z,1006.49
2022-11-24T12:12:40.131Z,1006.50
2022-11-24T12:13:40.143Z,1006.48
2022-11-24T12:14:40.165Z,1006.47
2022-11-24T12:15:40.322Z,1006.51
2022-11-24T12:16:40.150Z,1006.51